Time,TemperatureF,DewpointF,PressureIn,WindDirection,WindDirectionDegrees,WindSpeedMPH,WindSpeedGustMPH,Humidity,HourlyPrecipIn,Conditions,Clouds,dailyrainin,SoftwareType,DateUTC
2013-04-13 00:00:00,55.9,41.8,29.85,WNW,292,2.0,9.0,59,0.00,,---,0.20,VWS V14.01,2013-04-13 04:00:00,
2013-04-13 00:02:00,55.9,42.0,29.85,West,266,3.0,9.0,59,0.00,,,0.00,weatherlink.com 1.10,2013-04-13 04:02:00,
2013-04-13 00:19:00,55.7,41.0,29.86,WNW,283,6.0,8.0,58,0.00,,,0.00,weatherlink.com 1.10,2013-04-13 04:19:00,
2013-04-13 00:35:00,55.6,40.0,29.87,NNW,335,3.0,9.0,57,0.00,,,0.00,weatherlink.com 1.10,2013-04-13 04:35:00,
2013-04-13 00:52:00,55.7,40.0,29.86,NW,316,8.0,12.0,55,0.00,,,0.00,weatherlink.com 1.10,2013-04-13 04:52:00,
2013-04-13 01:08:00,55.8,40.0,29.86,West,271,6.0,14.0,55,0.00,,,0.00,weatherlink.com 1.10,2013-04-13 05:08:00,
2013-04-13 01:24:00,55.6,39.0,29.86,NNW,340,4.0,17.0,55,0.00,,,0.00,weatherlink.com 1.10,2013-04-13 05:24:00,
2013-04-13 01:57:00,55.3,40.0,29.86,WNW,285,4.0,11.0,56,0.00,,,0.00,weatherlink.com 1.10,2013-04-13 05:57:00,
2013-04-13 02:00:00,55.3,39.9,29.86,WNW,296,4.0,17.0,56,0.00,,---,0.00,VWS V14.01,2013-04-13 06:00:00,
2013-04-13 02:14:00,55.3,40.0,29.87,WNW,291,5.0,10.0,57,0.00,,,0.00,weatherlink.com 1.10,2013-04-13 06:14:00,
2013-04-13 02:31:00,55.2,40.0,29.87,WNW,285,4.0,8.0,58,0.00,,,0.00,weatherlink.com 1.10,2013-04-13 06:31:00,
2013-04-13 02:47:00,55.0,40.0,29.86,WNW,294,2.0,7.0,58,0.00,,,0.00,weatherlink.com 1.10,2013-04-13 06:47:00,
2013-04-13 03:03:00,54.8,41.0,29.86,WNW,299,5.0,7.0,60,0.00,,,0.00,weatherlink.com 1.10,2013-04-13 07:03:00,
2013-04-13 03:19:00,54.8,41.0,29.86,WNW,300,0.0,10.0,60,0.00,,,0.00,weatherlink.com 1.10,2013-04-13 07:19:00,
2013-04-13 04:00:00,54.1,41.4,29.86,NW,319,4.0,10.0,62,0.00,,---,0.00,VWS V14.01,2013-04-13 08:00:00,
2013-04-13 04:08:00,54.0,41.0,29.86,NW,309,2.0,8.0,62,0.00,,,0.00,weatherlink.com 1.10,2013-04-13 08:08:00,
2013-04-13 04:42:00,53.5,41.0,29.87,WNW,295,2.0,3.0,63,0.00,,,0.00,weatherlink.com 1.10,2013-04-13 08:42:00,
2013-04-13 04:58:00,53.0,41.0,29.88,NW,312,2.0,5.0,64,0.00,,,0.00,weatherlink.com 1.10,2013-04-13 08:58:00,
2013-04-13 06:00:00,53.1,41.3,29.88,WNW,292,4.0,10.0,64,0.00,,---,0.00,VWS V14.01,2013-04-13 10:00:00,
2013-04-13 06:03:00,53.0,41.0,29.88,NNW,346,2.0,6.0,64,0.00,,,0.00,weatherlink.com 1.10,2013-04-13 10:03:00,
2013-04-13 06:20:00,52.9,40.0,29.89,West,266,4.0,10.0,63,0.00,,,0.00,weatherlink.com 1.10,2013-04-13 10:20:00,
2013-04-13 06:36:00,53.3,40.0,29.89,WNW,292,1.0,6.0,62,0.00,,,0.00,weatherlink.com 1.10,2013-04-13 10:36:00,
2013-04-13 06:53:00,53.3,40.0,29.90,NW,304,5.0,9.0,61,0.00,,,0.00,weatherlink.com 1.10,2013-04-13 10:53:00,
2013-04-13 07:10:00,53.8,40.0,29.90,NW,323,4.0,8.0,60,0.00,,,0.00,weatherlink.com 1.10,2013-04-13 11:10:00,
2013-04-13 07:26:00,53.6,40.0,29.91,WNW,293,2.0,6.0,60,0.00,,,0.00,weatherlink.com 1.10,2013-04-13 11:26:00,
2013-04-13 07:43:00,53.5,40.0,29.92,NW,322,2.0,5.0,61,0.00,,,0.00,weatherlink.com 1.10,2013-04-13 11:43:00,
2013-04-13 08:00:00,54.2,40.0,29.93,NW,319,3.0,6.0,59,0.00,,,0.00,weatherlink.com 1.10,2013-04-13 12:00:00,
2013-04-13 08:16:00,55.2,40.0,29.93,NW,318,7.0,9.0,56,0.00,,,0.00,weatherlink.com 1.10,2013-04-13 12:16:00,
2013-04-13 08:32:00,56.3,39.0,29.94,WNW,283,2.0,9.0,53,0.00,,,0.00,weatherlink.com 1.10,2013-04-13 12:32:00,
2013-04-13 08:48:00,57.3,39.0,29.94,WNW,300,3.0,10.0,51,0.00,,,0.00,weatherlink.com 1.10,2013-04-13 12:48:00,
2013-04-13 09:05:00,57.8,38.0,29.95,NW,321,4.0,9.0,48,0.00,,,0.00,weatherlink.com 1.10,2013-04-13 13:05:00,
2013-04-13 09:38:00,59.8,38.0,29.96,NW,323,1.0,8.0,45,0.00,,,0.00,weatherlink.com 1.10,2013-04-13 13:38:00,
2013-04-13 09:54:00,60.8,37.0,29.97,West,271,8.0,10.0,42,0.00,,,0.00,weatherlink.com 1.10,2013-04-13 13:54:00,
2013-04-13 10:00:00,61.0,37.8,29.98,West,265,3.0,11.0,42,0.00,,---,0.00,VWS V14.01,2013-04-13 14:00:00,
2013-04-13 10:11:00,61.6,37.0,29.98,WNW,303,0.0,7.0,41,0.00,,,0.00,weatherlink.com 1.10,2013-04-13 14:11:00,
2013-04-13 10:27:00,63.0,35.0,29.98,West,264,6.0,8.0,36,0.00,,,0.00,weatherlink.com 1.10,2013-04-13 14:27:00,
2013-04-13 10:45:00,63.1,36.0,29.98,NW,321,3.0,12.0,36,0.00,,,0.00,weatherlink.com 1.10,2013-04-13 14:45:00,
2013-04-13 11:00:00,64.4,35.0,29.98,North,5,1.0,10.0,34,0.00,,,0.00,weatherlink.com 1.10,2013-04-13 15:00:00,
2013-04-13 11:17:00,65.0,34.0,29.99,NW,316,3.0,9.0,32,0.00,,,0.00,weatherlink.com 1.10,2013-04-13 15:17:00,
2013-04-13 11:33:00,66.3,34.0,29.99,NNW,327,3.0,12.0,30,0.00,,,0.00,weatherlink.com 1.10,2013-04-13 15:33:00,
2013-04-13 11:50:00,67.6,33.0,29.99,WNW,292,5.0,11.0,28,0.00,,,0.00,weatherlink.com 1.10,2013-04-13 15:50:00,
2013-04-13 12:00:00,67.0,32.8,29.99,WNW,289,2.0,12.0,28,0.00,,---,0.00,VWS V14.01,2013-04-13 16:00:00,
2013-04-13 12:06:00,67.1,35.0,29.98,SW,236,3.0,12.0,31,0.00,,,0.00,weatherlink.com 1.10,2013-04-13 16:06:00,
2013-04-13 12:39:00,69.3,34.0,29.97,WNW,294,8.0,11.0,27,0.00,,,0.00,weatherlink.com 1.10,2013-04-13 16:39:00,
2013-04-13 13:12:00,71.4,31.0,29.97,NNW,332,3.0,9.0,22,0.00,,,0.00,weatherlink.com 1.10,2013-04-13 17:12:00,
2013-04-13 13:29:00,72.3,28.0,29.96,WNW,295,3.0,14.0,19,0.00,,,0.00,weatherlink.com 1.10,2013-04-13 17:29:00,
2013-04-13 14:00:00,73.4,27.4,29.95,WNW,298,5.0,14.0,18,0.00,,---,0.00,VWS V14.01,2013-04-13 18:00:00,
2013-04-13 14:02:00,73.3,27.0,29.95,NNW,346,7.0,11.0,18,0.00,,,0.00,weatherlink.com 1.10,2013-04-13 18:02:00,
2013-04-13 14:34:00,74.5,30.0,29.94,NW,324,5.0,9.0,19,0.00,,,0.00,weatherlink.com 1.10,2013-04-13 18:34:00,
2013-04-13 15:07:00,75.5,33.0,29.93,NW,311,2.0,13.0,21,0.00,,,0.00,weatherlink.com 1.10,2013-04-13 19:07:00,
2013-04-13 15:23:00,76.9,30.0,29.93,NW,323,3.0,11.0,18,0.00,,,0.00,weatherlink.com 1.10,2013-04-13 19:23:00,
2013-04-13 15:40:00,76.8,31.0,29.92,WNW,282,7.0,11.0,19,0.00,,,0.00,weatherlink.com 1.10,2013-04-13 19:40:00,
2013-04-13 16:00:00,76.1,29.6,29.91,WNW,287,7.0,17.0,18,0.00,,---,0.00,VWS V14.01,2013-04-13 20:00:00,
2013-04-13 16:13:00,76.6,31.0,29.91,SSW,194,6.0,10.0,19,0.00,,,0.00,weatherlink.com 1.10,2013-04-13 20:13:00,
2013-04-13 16:29:00,77.4,32.0,29.90,WNW,288,6.0,9.0,19,0.00,,,0.00,weatherlink.com 1.10,2013-04-13 20:29:00,
2013-04-13 16:45:00,77.5,31.0,29.90,NW,315,4.0,12.0,18,0.00,,,0.00,weatherlink.com 1.10,2013-04-13 20:45:00,
2013-04-13 17:01:00,77.8,31.0,29.90,SW,232,0.0,10.0,18,0.00,,,0.00,weatherlink.com 1.10,2013-04-13 21:01:00,
2013-04-13 17:18:00,78.2,33.0,29.90,NW,318,6.0,8.0,19,0.00,,,0.00,weatherlink.com 1.10,2013-04-13 21:18:00,
2013-04-13 17:34:00,76.9,33.0,29.91,NW,324,2.0,13.0,20,0.00,,,0.00,weatherlink.com 1.10,2013-04-13 21:34:00,
2013-04-13 17:51:00,76.5,33.0,29.90,NW,317,5.0,13.0,20,0.00,,,0.00,weatherlink.com 1.10,2013-04-13 21:51:00,
2013-04-13 18:00:00,77.1,33.0,29.90,NNW,347,4.0,13.0,20,0.00,,---,0.00,VWS V14.01,2013-04-13 22:00:00,
2013-04-13 18:07:00,77.5,33.0,29.90,WNW,303,3.0,7.0,20,0.00,,,0.00,weatherlink.com 1.10,2013-04-13 22:07:00,
2013-04-13 18:23:00,76.9,33.0,29.90,NNW,327,2.0,8.0,20,0.00,,,0.00,weatherlink.com 1.10,2013-04-13 22:23:00,
2013-04-13 18:40:00,77.1,33.0,29.90,NW,323,4.0,10.0,20,0.00,,,0.00,weatherlink.com 1.10,2013-04-13 22:40:00,
2013-04-13 18:57:00,76.1,32.0,29.91,WNW,295,3.0,11.0,20,0.00,,,0.00,weatherlink.com 1.10,2013-04-13 22:57:00,
2013-04-13 19:13:00,75.3,32.0,29.91,NW,313,5.0,11.0,20,0.00,,,0.00,weatherlink.com 1.10,2013-04-13 23:13:00,
2013-04-13 19:46:00,73.2,34.0,29.92,WNW,299,1.0,6.0,24,0.00,,,0.00,weatherlink.com 1.10,2013-04-13 23:46:00,
2013-04-13 20:00:00,71.6,34.9,29.92,NW,315,0.0,10.0,26,0.00,,---,0.00,VWS V14.01,2013-04-14 00:00:00,
2013-04-13 20:02:00,71.6,36.0,29.92,NW,315,0.0,6.0,27,0.00,,,0.00,weatherlink.com 1.10,2013-04-14 00:02:00,
2013-04-13 20:18:00,70.3,35.0,29.92,WNW,296,3.0,8.0,27,0.00,,,0.00,weatherlink.com 1.10,2013-04-14 00:18:00,
2013-04-13 20:35:00,69.0,34.0,29.93,NNW,329,1.0,8.0,28,0.00,,,0.00,weatherlink.com 1.10,2013-04-14 00:35:00,
2013-04-13 20:51:00,68.0,34.0,29.94,West,278,3.0,3.0,29,0.00,,,0.00,weatherlink.com 1.10,2013-04-14 00:51:00,
2013-04-13 21:08:00,67.0,35.0,29.94,WNW,296,1.0,3.0,31,0.00,,,0.00,weatherlink.com 1.10,2013-04-14 01:08:00,
2013-04-13 21:24:00,66.1,35.0,29.95,WNW,295,0.0,4.0,32,0.00,,,0.00,weatherlink.com 1.10,2013-04-14 01:24:00,
2013-04-13 21:57:00,64.1,38.0,29.95,West,277,0.0,1.0,38,0.00,,,0.00,weatherlink.com 1.10,2013-04-14 01:57:00,
2013-04-13 22:00:00,63.7,39.0,29.96,West,277,0.0,8.0,40,0.00,,---,0.00,VWS V14.01,2013-04-14 02:00:00,
2013-04-13 22:14:00,62.8,38.0,29.96,West,277,0.0,0.0,40,0.00,,,0.00,weatherlink.com 1.10,2013-04-14 02:14:00,
2013-04-13 22:30:00,62.1,38.0,29.96,West,277,0.0,0.0,41,0.00,,,0.00,weatherlink.com 1.10,2013-04-14 02:30:00,
2013-04-13 22:47:00,61.2,37.0,29.97,West,277,0.0,0.0,41,0.00,,,0.00,weatherlink.com 1.10,2013-04-14 02:47:00,
2013-04-13 23:02:00,60.4,39.0,29.96,West,277,0.0,0.0,45,0.00,,,0.00,weatherlink.com 1.10,2013-04-14 03:02:00,
2013-04-13 23:19:00,59.8,39.0,29.97,West,277,0.0,0.0,46,0.00,,,0.00,weatherlink.com 1.10,2013-04-14 03:19:00,
2013-04-13 23:35:00,59.2,37.0,29.98,West,277,0.0,0.0,44,0.00,,,0.00,weatherlink.com 1.10,2013-04-14 03:35:00,
2013-04-13 23:52:00,58.9,38.0,29.98,West,277,0.0,1.0,47,0.00,,,0.00,weatherlink.com 1.10,2013-04-14 03:52:00,